createdAt,value
2017-04-17T00:00:52.128Z,74.68
2017-04-17T00:01:53.199Z,74.05
2017-04-17T00:02:54.181Z,73.83
2017-04-17T00:03:55.279Z,73.45
2017-04-17T00:04:56.441Z,73.34
2017-04-17T00:05:57.881Z,72.97
2017-04-17T00:06:59.047Z,73.14
2017-04-17T00:07:59.950Z,72.98
2017-04-17T00:09:00.840Z,73.50
2017-04-17T00:10:01.849Z,73.06
2017-04-17T00:11:03.661Z,72.94
2017-04-17T00:12:04.699Z,73.83
2017-04-17T00:13:05.799Z,74.12
2017-04-17T00:14:06.985Z,73.80
2017-04-17T00:15:08.256Z,73.73
2017-04-17T00:16:09.164Z,74.75
2017-04-17T00:17:10.329Z,74.66
2017-04-17T00:18:11.413Z,74.89
2017-04-17T00:19:12.498Z,74.94
2017-04-17T00:20:13.466Z,74.71
2017-04-17T00:21:15.095Z,74.42
2017-04-17T00:22:16.327Z,74.68
2017-04-17T00:23:17.524Z,74.93
2017-04-17T00:24:18.456Z,76.01
2017-04-17T00:25:19.603Z,75.73
2017-04-17T00:26:20.685Z,76.36
2017-04-17T00:27:22.153Z,75.88
2017-04-17T00:28:23.316Z,76.08
2017-04-17T00:29:25.324Z,75.49
2017-04-17T00:30:26.479Z,76.46
2017-04-17T00:31:27.580Z,76.69
2017-04-17T00:32:28.679Z,76.25
2017-04-17T00:33:29.821Z,76.76
2017-04-17T00:34:30.759Z,77.02
2017-04-17T00:35:31.828Z,77.29
2017-04-17T00:36:32.875Z,77.23
2017-04-17T00:37:34.029Z,76.93
2017-04-17T00:38:35.310Z,77.02
2017-04-17T00:39:36.437Z,77.59
2017-04-17T00:40:37.504Z,77.75
2017-04-17T00:41:38.810Z,77.79
2017-04-17T00:42:40.005Z,77.85
2017-04-17T00:43:41.196Z,77.79
2017-04-17T00:44:42.455Z,77.58
2017-04-17T00:45:43.656Z,78.71
2017-04-17T00:46:44.793Z,78.97
2017-04-17T00:47:46.211Z,78.58
2017-04-17T00:48:47.380Z,79.10
2017-04-17T00:49:48.307Z,79.07
2017-04-17T00:50:49.288Z,78.62
2017-04-17T00:51:50.391Z,78.47
2017-04-17T00:52:51.600Z,78.34
2017-04-17T00:53:52.603Z,78.14
2017-04-17T00:54:53.619Z,78.25
2017-04-17T00:55:54.768Z,78.28
2017-04-17T00:56:55.929Z,78.60
2017-04-17T00:57:56.882Z,78.38
2017-04-17T00:58:58.012Z,78.10
2017-04-17T00:59:59.222Z,77.35
2017-04-17T01:01:00.362Z,77.41
2017-04-17T01:02:01.413Z,77.63
2017-04-17T01:03:02.451Z,77.82
2017-04-17T01:04:03.562Z,78.38
2017-04-17T01:05:05.142Z,78.75
2017-04-17T01:06:06.269Z,79.50
2017-04-17T01:07:07.174Z,79.94
2017-04-17T01:08:08.095Z,79.94
2017-04-17T01:09:09.020Z,80.22
2017-04-17T01:10:10.213Z,81.03
2017-04-17T01:11:11.338Z,80.26
2017-04-17T01:12:12.692Z,79.60
2017-04-17T01:13:13.811Z,79.40
2017-04-17T01:14:14.746Z,79.63
2017-04-17T01:15:16.172Z,79.02
2017-04-17T01:16:17.068Z,79.07
2017-04-17T01:17:17.961Z,79.00
2017-04-17T01:18:19.080Z,78.65
2017-04-17T01:19:20.047Z,78.75
2017-04-17T01:20:21.232Z,78.83
2017-04-17T01:21:22.497Z,79.14
2017-04-17T01:22:23.513Z,78.69
2017-04-17T01:23:24.612Z,78.47
2017-04-17T01:24:25.744Z,78.28
2017-04-17T01:25:26.840Z,78.57
2017-04-17T01:26:27.935Z,78.40
2017-04-17T01:27:29.155Z,78.27
2017-04-17T01:28:30.145Z,78.31
2017-04-17T01:29:31.233Z,78.27
2017-04-17T01:30:32.183Z,78.32
2017-04-17T01:31:33.450Z,78.61
2017-04-17T01:32:34.559Z,78.13
2017-04-17T01:33:35.789Z,78.09
2017-04-17T01:34:36.925Z,78.08
2017-04-17T01:35:38.004Z,77.90
2017-04-17T01:36:39.120Z,78.38
2017-04-17T01:37:40.217Z,78.42
2017-04-17T01:38:41.285Z,78.19
2017-04-17T01:39:42.483Z,78.16
2017-04-17T01:40:43.616Z,78.19
2017-04-17T01:41:44.655Z,78.02
2017-04-17T01:42:45.774Z,77.92
2017-04-17T01:43:46.913Z,78.26
2017-04-17T01:44:48.095Z,78.39
2017-04-17T01:45:49.364Z,78.62
2017-04-17T01:46:50.532Z,78.98
2017-04-17T01:47:51.673Z,79.10
2017-04-17T01:48:52.738Z,78.97
2017-04-17T01:49:54.098Z,78.99
2017-04-17T01:50:55.249Z,78.93
2017-04-17T01:51:56.727Z,78.54
2017-04-17T01:52:57.836Z,78.21
2017-04-17T01:53:59.659Z,78.19
2017-04-17T01:55:00.837Z,78.21
2017-04-17T01:56:01.949Z,78.39
2017-04-17T01:57:04.094Z,78.59
2017-04-17T01:58:05.581Z,78.91
2017-04-17T01:59:07.062Z,78.55
2017-04-17T02:00:08.238Z,78.13
2017-04-17T02:01:09.537Z,78.14
2017-04-17T02:02:10.679Z,78.35
2017-04-17T02:03:11.657Z,78.72
2017-04-17T02:04:13.229Z,78.63
2017-04-17T02:05:14.801Z,78.35
2017-04-17T02:06:15.819Z,78.47
2017-04-17T02:07:16.948Z,78.24
2017-04-17T02:08:17.844Z,78.16
2017-04-17T02:09:18.757Z,77.98
2017-04-17T02:10:20.397Z,78.16
2017-04-17T02:11:21.291Z,78.68
2017-04-17T02:12:22.212Z,78.24
2017-04-17T02:13:23.306Z,78.27
2017-04-17T02:14:24.411Z,78.03
2017-04-17T02:15:25.369Z,78.09
2017-04-17T02:16:26.700Z,77.95
2017-04-17T02:17:27.787Z,77.96
2017-04-17T02:18:29.865Z,77.89
2017-04-17T02:19:31.327Z,77.88
2017-04-17T02:20:32.499Z,78.31
2017-04-17T02:21:33.934Z,78.40
2017-04-17T02:22:34.947Z,78.22
2017-04-17T02:23:36.037Z,78.39
2017-04-17T02:24:37.164Z,78.38
2017-04-17T02:25:38.367Z,78.35
2017-04-17T02:26:39.793Z,77.98
2017-04-17T02:27:41.094Z,77.84
2017-04-17T02:28:42.429Z,78.04
2017-04-17T02:29:44.037Z,78.12
2017-04-17T02:30:45.186Z,77.81
2017-04-17T02:31:46.173Z,77.84
2017-04-17T02:32:47.357Z,78.02
2017-04-17T02:33:48.802Z,78.06
2017-04-17T02:34:50.255Z,77.79
2017-04-17T02:35:51.484Z,78.06
2017-04-17T02:36:52.691Z,77.91
2017-04-17T02:37:54.020Z,78.13
2017-04-17T02:38:55.316Z,78.46
2017-04-17T02:39:56.490Z,78.24
2017-04-17T02:40:57.940Z,78.13
2017-04-17T02:41:58.998Z,77.96
2017-04-17T02:43:00.171Z,78.03
2017-04-17T02:44:01.394Z,78.65
2017-04-17T02:45:02.574Z,78.26
2017-04-17T02:46:03.804Z,78.27
2017-04-17T02:47:04.959Z,78.02
2017-04-17T02:48:06.128Z,77.50
2017-04-17T02:49:07.412Z,76.95
2017-04-17T02:50:08.567Z,77.68
2017-04-17T02:51:09.680Z,78.17
2017-04-17T02:52:10.857Z,78.25
2017-04-17T02:53:12.001Z,78.56
2017-04-17T02:54:13.621Z,78.51
2017-04-17T02:55:14.728Z,78.61
2017-04-17T02:56:15.894Z,78.31
2017-04-17T02:57:17.099Z,78.93
2017-04-17T02:58:18.296Z,79.05
2017-04-17T02:59:19.642Z,79.14
2017-04-17T03:00:21.533Z,79.00
2017-04-17T03:01:22.507Z,79.22
2017-04-17T03:02:24.414Z,79.73
2017-04-17T03:03:25.760Z,79.59
2017-04-17T03:04:26.720Z,79.61
2017-04-17T03:05:27.921Z,79.11
2017-04-17T03:06:29.018Z,78.82
2017-04-17T03:07:30.199Z,78.99
2017-04-17T03:08:31.501Z,79.05
2017-04-17T03:09:32.784Z,78.59
2017-04-17T03:10:35.630Z,78.47
2017-04-17T03:11:37.058Z,78.60
2017-04-17T03:12:38.364Z,78.63
2017-04-17T03:13:39.407Z,78.35
2017-04-17T03:14:40.859Z,78.16
2017-04-17T03:15:42.184Z,77.62
2017-04-17T03:16:43.425Z,77.49
2017-04-17T03:17:44.680Z,77.61
2017-04-17T03:18:45.732Z,77.46
2017-04-17T03:19:47.036Z,77.36
2017-04-17T03:20:48.100Z,77.45
2017-04-17T03:21:49.463Z,77.23
2017-04-17T03:22:50.848Z,77.35
2017-04-17T03:23:52.088Z,77.08
2017-04-17T03:24:53.349Z,76.66
2017-04-17T03:25:54.823Z,76.65
2017-04-17T03:26:56.155Z,76.33
2017-04-17T03:27:57.416Z,76.74
2017-04-17T03:28:58.565Z,76.91
2017-04-17T03:29:59.982Z,76.53
2017-04-17T03:31:01.006Z,76.49
2017-04-17T03:32:01.994Z,76.21
2017-04-17T03:33:03.213Z,76.38
2017-04-17T03:34:04.292Z,76.24
2017-04-17T03:35:05.329Z,75.77
2017-04-17T03:36:06.553Z,75.92
2017-04-17T03:37:08.631Z,75.61
2017-04-17T03:38:09.600Z,75.68
2017-04-17T03:39:10.821Z,75.43
2017-04-17T03:40:11.942Z,75.29
2017-04-17T03:41:13.234Z,75.22
2017-04-17T03:42:14.932Z,75.43
2017-04-17T03:43:16.313Z,76.31
2017-04-17T03:44:17.532Z,76.17
2017-04-17T03:45:18.881Z,75.81
2017-04-17T03:46:20.125Z,75.76
2017-04-17T03:47:21.341Z,75.57
2017-04-17T03:48:22.544Z,75.76
2017-04-17T03:49:23.680Z,75.90
2017-04-17T03:50:24.734Z,75.94
2017-04-17T03:51:25.904Z,76.30
2017-04-17T03:52:27.081Z,76.15
2017-04-17T03:53:28.236Z,75.98
2017-04-17T03:54:29.157Z,75.60
2017-04-17T03:55:31.123Z,75.53
2017-04-17T03:56:32.235Z,75.69
2017-04-17T03:57:33.351Z,75.76
2017-04-17T03:58:34.600Z,76.35
2017-04-17T03:59:35.723Z,76.04
2017-04-17T04:00:36.993Z,76.28
2017-04-17T04:01:38.379Z,76.16
2017-04-17T04:02:39.512Z,76.53
2017-04-17T04:03:41.607Z,76.69
2017-04-17T04:04:42.841Z,76.46
2017-04-17T04:05:43.953Z,76.59
2017-04-17T04:06:45.228Z,76.70
2017-04-17T04:07:46.159Z,76.64
2017-04-17T04:08:47.285Z,75.83
2017-04-17T04:09:48.360Z,76.06
2017-04-17T04:10:50.747Z,76.62
2017-04-17T04:11:51.912Z,76.26
2017-04-17T04:12:53.047Z,76.13
2017-04-17T04:13:54.310Z,76.27
2017-04-17T04:14:55.380Z,76.53
2017-04-17T04:15:56.528Z,76.50
2017-04-17T04:16:57.724Z,76.30
2017-04-17T04:17:58.927Z,75.73
2017-04-17T04:19:00.040Z,75.63
2017-04-17T04:20:01.131Z,75.98
2017-04-17T04:21:02.339Z,75.91
2017-04-17T04:22:03.577Z,75.96
2017-04-17T04:23:04.666Z,75.81
2017-04-17T04:24:05.764Z,75.90
2017-04-17T04:25:06.916Z,75.75
2017-04-17T04:26:08.007Z,75.76
2017-04-17T04:27:10.015Z,75.93
2017-04-17T04:28:11.072Z,76.05
2017-04-17T04:29:12.148Z,76.24
2017-04-17T04:30:17.305Z,76.26
2017-04-17T04:31:18.194Z,76.19
2017-04-17T04:32:19.387Z,76.46
2017-04-17T04:33:20.464Z,76.76
2017-04-17T04:34:21.521Z,76.56
2017-04-17T04:35:22.588Z,77.22
2017-04-17T04:36:23.744Z,76.90
2017-04-17T04:37:24.897Z,76.68
2017-04-17T04:38:25.791Z,76.33
2017-04-17T04:39:26.848Z,76.44
2017-04-17T04:40:27.942Z,76.40
2017-04-17T04:41:29.016Z,76.72
2017-04-17T04:42:30.127Z,76.80
2017-04-17T04:43:31.115Z,76.96
2017-04-17T04:44:32.202Z,77.37
2017-04-17T04:45:33.274Z,76.83
2017-04-17T04:46:34.535Z,76.71
2017-04-17T04:47:35.640Z,76.98
2017-04-17T04:48:36.831Z,77.14
2017-04-17T04:49:38.017Z,77.11
2017-04-17T04:50:39.083Z,77.17
2017-04-17T04:51:40.269Z,76.89
2017-04-17T04:52:41.254Z,77.07
2017-04-17T04:53:42.309Z,77.10
2017-04-17T04:54:43.439Z,76.75
2017-04-17T04:55:44.530Z,76.55
2017-04-17T04:56:45.620Z,76.19
2017-04-17T04:57:46.717Z,76.30
2017-04-17T04:58:47.795Z,76.32
2017-04-17T04:59:49.120Z,76.17
2017-04-17T05:00:50.357Z,76.26
2017-04-17T05:01:51.494Z,76.12
2017-04-17T05:02:52.408Z,76.30
2017-04-17T05:03:53.567Z,76.38
2017-04-17T05:04:54.757Z,76.32
2017-04-17T05:05:55.856Z,76.56
2017-04-17T05:06:56.972Z,76.72
2017-04-17T05:07:58.119Z,76.73
2017-04-17T05:08:59.280Z,76.17
2017-04-17T05:10:00.271Z,76.24
2017-04-17T05:11:01.395Z,76.10
2017-04-17T05:12:02.469Z,76.27
2017-04-17T05:13:03.609Z,76.12
2017-04-17T05:14:04.684Z,75.81
2017-04-17T05:15:05.836Z,75.96
2017-04-17T05:16:06.929Z,75.95
2017-04-17T05:17:08.940Z,76.19
2017-04-17T05:18:10.019Z,75.80
2017-04-17T05:19:11.119Z,75.57
2017-04-17T05:20:12.313Z,75.49
2017-04-17T05:21:13.246Z,75.57
2017-04-17T05:22:14.374Z,75.50
2017-04-17T05:23:15.861Z,75.45
2017-04-17T05:24:17.009Z,75.62
2017-04-17T05:25:18.093Z,75.84
2017-04-17T05:26:19.215Z,75.61
2017-04-17T05:27:20.312Z,75.89
2017-04-17T05:28:21.376Z,76.02
2017-04-17T05:29:22.448Z,76.06
2017-04-17T05:30:23.667Z,75.68
2017-04-17T05:31:24.806Z,75.42
2017-04-17T05:32:25.902Z,75.38
2017-04-17T05:33:27.211Z,75.09
2017-04-17T05:34:28.326Z,75.10
2017-04-17T05:35:29.464Z,75.34
2017-04-17T05:36:30.927Z,75.35
2017-04-17T05:37:32.064Z,75.25
2017-04-17T05:38:33.018Z,75.46
2017-04-17T05:39:34.115Z,75.80
2017-04-17T05:40:35.495Z,75.98
2017-04-17T05:41:36.640Z,75.36
2017-04-17T05:42:38.104Z,75.33
2017-04-17T05:43:39.151Z,75.42
2017-04-17T05:44:40.239Z,75.37
2017-04-17T05:45:41.579Z,75.99
2017-04-17T05:46:42.875Z,76.49
2017-04-17T05:47:44.000Z,75.86
2017-04-17T05:48:45.241Z,76.17
2017-04-17T05:49:46.455Z,76.35
2017-04-17T05:50:47.524Z,76.30
2017-04-17T05:51:48.812Z,76.62
2017-04-17T05:52:50.361Z,76.65
2017-04-17T05:53:51.485Z,76.71
2017-04-17T05:54:52.570Z,77.15
2017-04-17T05:55:53.908Z,77.56
2017-04-17T05:56:55.168Z,77.46
2017-04-17T05:57:56.356Z,77.28
2017-04-17T05:58:57.779Z,77.48
2017-04-17T05:59:59.026Z,77.46
2017-04-17T06:01:00.526Z,77.23
2017-04-17T06:02:01.929Z,77.10
2017-04-17T06:03:03.179Z,77.25
2017-04-17T06:04:08.701Z,77.59
2017-04-17T06:05:11.655Z,77.52
2017-04-17T06:06:14.232Z,77.50
2017-04-17T06:07:16.218Z,77.48
2017-04-17T06:08:17.428Z,77.48
2017-04-17T06:09:18.672Z,77.33
2017-04-17T06:10:19.947Z,76.61
2017-04-17T06:11:21.201Z,77.10
2017-04-17T06:12:22.431Z,77.31
2017-04-17T06:13:24.442Z,77.14
2017-04-17T06:14:25.708Z,77.15
2017-04-17T06:15:26.859Z,77.69
2017-04-17T06:16:28.043Z,78.27
2017-04-17T06:17:29.439Z,78.49
2017-04-17T06:18:30.590Z,78.45
2017-04-17T06:19:31.734Z,79.17
2017-04-17T06:20:32.907Z,79.83
2017-04-17T06:21:34.115Z,79.40
2017-04-17T06:22:35.333Z,79.05
2017-04-17T06:23:36.571Z,79.12
2017-04-17T06:24:37.872Z,78.65
2017-04-17T06:25:39.323Z,79.05
2017-04-17T06:26:40.546Z,79.29
2017-04-17T06:27:41.789Z,79.38
2017-04-17T06:28:43.258Z,79.44
2017-04-17T06:29:44.489Z,79.42
2017-04-17T06:30:45.826Z,79.08
2017-04-17T06:31:47.063Z,79.08
2017-04-17T06:32:48.322Z,79.26
2017-04-17T06:33:49.616Z,79.00
2017-04-17T06:34:50.935Z,78.41
2017-04-17T06:35:52.198Z,79.08
2017-04-17T06:36:53.415Z,79.32
2017-04-17T06:37:54.843Z,79.64
2017-04-17T06:38:56.339Z,79.25
2017-04-17T06:39:57.796Z,78.87
2017-04-17T06:40:59.035Z,78.91
2017-04-17T06:42:00.192Z,78.50
2017-04-17T06:43:01.341Z,78.27
2017-04-17T06:44:02.544Z,78.33
2017-04-17T06:45:03.728Z,78.80
2017-04-17T06:46:05.339Z,78.60
2017-04-17T06:47:06.655Z,79.00
2017-04-17T06:48:07.896Z,78.94
2017-04-17T06:49:09.572Z,78.04
2017-04-17T06:50:12.173Z,77.51
2017-04-17T06:51:13.455Z,77.32
2017-04-17T06:52:14.635Z,77.11
2017-04-17T06:53:15.731Z,77.00
2017-04-17T06:54:16.956Z,77.24
2017-04-17T06:55:18.390Z,77.36
2017-04-17T06:56:20.156Z,77.37
2017-04-17T06:57:21.501Z,77.80
2017-04-17T06:58:22.676Z,77.75
2017-04-17T06:59:23.911Z,78.06
2017-04-17T07:00:25.391Z,78.34
2017-04-17T07:01:26.781Z,78.45
2017-04-17T07:02:29.128Z,78.41
2017-04-17T07:03:31.490Z,78.24
2017-04-17T07:04:32.789Z,78.74
2017-04-17T07:05:33.677Z,78.81
2017-04-17T07:06:35.057Z,78.64
2017-04-17T07:07:36.309Z,78.56
2017-04-17T07:08:37.741Z,78.18
2017-04-17T07:09:39.088Z,77.86
2017-04-17T07:10:40.255Z,77.98
2017-04-17T07:11:41.388Z,77.87
2017-04-17T07:12:42.977Z,77.59
2017-04-17T07:13:43.856Z,77.07
2017-04-17T07:14:45.549Z,77.07
2017-04-17T07:15:46.624Z,77.33
2017-04-17T07:16:47.847Z,77.83
2017-04-17T07:17:49.414Z,77.68
2017-04-17T07:18:50.985Z,77.89
2017-04-17T07:19:52.191Z,78.46
2017-04-17T07:20:53.393Z,77.68
2017-04-17T07:21:55.119Z,77.23
2017-04-17T07:22:56.337Z,76.88
2017-04-17T07:23:58.268Z,76.30
2017-04-17T07:24:59.624Z,76.09
2017-04-17T07:26:00.998Z,75.96
2017-04-17T07:27:02.235Z,76.04
2017-04-17T07:28:03.464Z,75.22
2017-04-17T07:29:04.652Z,74.90
2017-04-17T07:30:05.890Z,74.91
2017-04-17T07:31:07.055Z,74.75
2017-04-17T07:32:08.245Z,74.54
2017-04-17T07:33:09.540Z,74.09
2017-04-17T07:34:10.711Z,74.11
2017-04-17T07:35:11.928Z,73.92
2017-04-17T07:36:13.123Z,74.19
2017-04-17T07:37:14.319Z,74.31
2017-04-17T07:38:15.295Z,73.63
2017-04-17T07:39:16.903Z,73.04
2017-04-17T07:40:18.155Z,72.85
2017-04-17T07:41:19.187Z,72.89
2017-04-17T07:42:20.236Z,73.23
2017-04-17T07:43:21.371Z,74.01
2017-04-17T07:44:22.585Z,74.01
2017-04-17T07:45:23.769Z,74.66
2017-04-17T07:46:24.723Z,74.84
2017-04-17T07:47:26.024Z,73.89
2017-04-17T07:48:27.395Z,73.67
2017-04-17T07:49:28.689Z,74.21
2017-04-17T07:50:29.844Z,74.46
2017-04-17T07:51:30.925Z,74.27
2017-04-17T07:52:32.132Z,74.36
2017-04-17T07:53:33.459Z,74.38
2017-04-17T07:54:34.614Z,73.91
2017-04-17T07:55:35.821Z,72.92
2017-04-17T07:56:38.426Z,72.24
2017-04-17T07:57:40.484Z,71.66
2017-04-17T07:58:41.977Z,71.07
2017-04-17T07:59:43.442Z,70.48
2017-04-17T08:00:44.735Z,70.24
2017-04-17T08:01:45.919Z,69.70
2017-04-17T08:02:47.045Z,69.55
2017-04-17T08:03:48.876Z,69.10
2017-04-17T08:04:50.552Z,68.72
2017-04-17T08:05:52.557Z,69.04
2017-04-17T08:06:53.805Z,68.81
2017-04-17T08:07:55.731Z,68.79
2017-04-17T08:09:01.259Z,68.62
2017-04-17T08:10:03.692Z,68.18
2017-04-17T08:11:07.281Z,68.27
2017-04-17T08:12:08.441Z,68.23
2017-04-17T08:13:15.429Z,68.14
2017-04-17T08:14:17.171Z,67.33
2017-04-17T08:15:18.527Z,67.41
2017-04-17T08:16:22.520Z,67.27
2017-04-17T08:17:28.675Z,67.28
2017-04-17T08:18:32.109Z,66.98
2017-04-17T08:19:33.327Z,66.92
2017-04-17T08:20:37.987Z,66.76
2017-04-17T08:21:39.675Z,66.71
2017-04-17T08:22:40.986Z,66.59
2017-04-17T08:23:42.450Z,66.46
2017-04-17T08:24:43.738Z,66.03
2017-04-17T08:25:46.032Z,65.97
2017-04-17T08:26:47.210Z,65.32
2017-04-17T08:27:50.792Z,64.76
2017-04-17T08:28:52.072Z,64.37
2017-04-17T08:29:53.521Z,64.56
2017-04-17T08:30:56.527Z,64.42
2017-04-17T08:31:57.712Z,64.56
2017-04-17T08:32:59.057Z,64.70
2017-04-17T08:34:00.210Z,64.93
2017-04-17T08:35:01.485Z,64.54
2017-04-17T08:36:02.731Z,64.64
2017-04-17T08:37:04.003Z,62.83
2017-04-17T08:38:05.028Z,62.14
2017-04-17T08:39:11.373Z,63.24
2017-04-17T08:40:19.751Z,64.07
2017-04-17T08:41:25.267Z,64.97
2017-04-17T08:42:26.764Z,65.82
2017-04-17T08:43:28.336Z,65.14
2017-04-17T08:44:29.439Z,62.02
2017-04-17T08:45:30.800Z,63.37
2017-04-17T08:46:32.077Z,63.85
2017-04-17T08:47:33.142Z,64.51
2017-04-17T08:48:34.300Z,64.48
2017-04-17T08:49:35.855Z,64.39
2017-04-17T08:50:37.172Z,64.35
2017-04-17T08:51:38.720Z,64.50
2017-04-17T08:52:39.895Z,64.59
2017-04-17T08:53:41.345Z,64.27
2017-04-17T08:54:42.688Z,62.83
2017-04-17T08:55:43.901Z,62.62
2017-04-17T08:56:45.705Z,63.17
2017-04-17T08:57:46.854Z,63.62
2017-04-17T08:58:48.161Z,63.67
2017-04-17T08:59:49.421Z,63.42
2017-04-17T09:00:50.835Z,63.00
2017-04-17T09:01:52.248Z,62.66
2017-04-17T09:02:53.471Z,62.72
2017-04-17T09:03:54.737Z,62.52
2017-04-17T09:04:55.886Z,61.31
2017-04-17T09:05:57.266Z,61.41
2017-04-17T09:06:58.356Z,60.16
2017-04-17T09:07:59.899Z,59.22
2017-04-17T09:09:01.125Z,58.65
2017-04-17T09:10:02.122Z,59.39
2017-04-17T09:11:03.382Z,59.91
2017-04-17T09:12:04.646Z,60.13
2017-04-17T09:13:05.888Z,60.75
2017-04-17T09:14:07.149Z,59.29
2017-04-17T09:15:08.568Z,59.74
2017-04-17T09:16:09.786Z,60.34
2017-04-17T09:17:11.067Z,59.16
2017-04-17T09:18:12.479Z,59.23
2017-04-17T09:19:13.696Z,59.85
2017-04-17T09:20:14.945Z,60.42
2017-04-17T09:21:16.066Z,60.23
2017-04-17T09:22:17.520Z,59.78
2017-04-17T09:23:19.046Z,59.24
2017-04-17T09:24:20.494Z,60.64
2017-04-17T09:25:22.135Z,58.79
2017-04-17T09:26:23.394Z,59.56
2017-04-17T09:27:24.619Z,59.37
2017-04-17T09:28:25.789Z,59.40
2017-04-17T09:29:26.895Z,59.93
2017-04-17T09:30:27.961Z,60.02
2017-04-17T09:31:29.151Z,60.12
2017-04-17T09:32:30.345Z,60.70
2017-04-17T09:33:31.669Z,60.11
2017-04-17T09:34:33.152Z,60.16
2017-04-17T09:35:34.313Z,61.08
2017-04-17T09:36:35.428Z,61.42
2017-04-17T09:37:36.886Z,61.34
2017-04-17T09:38:38.024Z,61.60
2017-04-17T09:39:39.200Z,61.02
2017-04-17T09:40:40.650Z,61.57
2017-04-17T09:41:42.147Z,60.83
2017-04-17T09:42:43.915Z,60.87
2017-04-17T09:43:45.097Z,60.88
2017-04-17T09:44:47.151Z,61.36
2017-04-17T09:45:48.333Z,61.64
2017-04-17T09:46:49.305Z,61.73
2017-04-17T09:47:50.519Z,62.05
2017-04-17T09:48:51.916Z,62.18
2017-04-17T09:49:53.073Z,62.32
2017-04-17T09:50:54.300Z,62.70
2017-04-17T09:51:55.534Z,63.02
2017-04-17T09:52:56.658Z,63.42
2017-04-17T09:53:57.770Z,63.41
2017-04-17T09:54:59.153Z,63.56
2017-04-17T09:56:00.391Z,63.57
2017-04-17T09:57:01.673Z,63.62
2017-04-17T09:58:02.792Z,63.88
2017-04-17T09:59:04.013Z,64.26
2017-04-17T10:00:05.637Z,64.72
2017-04-17T10:01:06.643Z,65.80
2017-04-17T10:02:07.580Z,66.38
2017-04-17T10:03:08.849Z,67.33
2017-04-17T10:04:10.039Z,68.13
2017-04-17T10:05:11.192Z,68.62
2017-04-17T10:06:12.592Z,69.18
2017-04-17T10:07:13.676Z,70.39
2017-04-17T10:08:14.828Z,70.97
2017-04-17T10:09:16.353Z,71.82
2017-04-17T10:10:17.837Z,72.20
2017-04-17T10:11:19.228Z,72.74
2017-04-17T10:12:20.459Z,73.00
2017-04-17T10:13:21.601Z,73.51
2017-04-17T10:14:22.673Z,73.74
2017-04-17T10:15:23.824Z,73.76
2017-04-17T10:16:24.904Z,74.54
2017-04-17T10:17:25.812Z,74.81
2017-04-17T10:18:26.872Z,74.92
2017-04-17T10:19:27.853Z,74.74
2017-04-17T10:20:29.037Z,74.45
2017-04-17T10:21:30.167Z,74.52
2017-04-17T10:22:31.270Z,74.62
2017-04-17T10:23:32.499Z,75.01
2017-04-17T10:24:33.637Z,76.58
2017-04-17T10:25:34.728Z,76.53
2017-04-17T10:26:35.794Z,76.24
2017-04-17T10:27:36.913Z,75.86
2017-04-17T10:28:38.968Z,76.21
2017-04-17T10:29:40.261Z,76.50
2017-04-17T10:30:41.830Z,76.40
2017-04-17T10:31:42.927Z,76.75
2017-04-17T10:32:43.969Z,77.25
2017-04-17T10:33:45.101Z,76.87
2017-04-17T10:34:46.240Z,76.26
2017-04-17T10:35:47.378Z,76.21
2017-04-17T10:36:48.551Z,76.22
2017-04-17T10:37:49.681Z,76.27
2017-04-17T10:38:50.803Z,76.47
2017-04-17T10:39:52.028Z,76.51
2017-04-17T10:40:53.103Z,75.71
2017-04-17T10:41:54.189Z,75.48
2017-04-17T10:42:55.270Z,75.50
2017-04-17T10:43:56.349Z,75.85
2017-04-17T10:44:57.604Z,76.13
2017-04-17T10:45:58.779Z,76.40
2017-04-17T10:47:00.131Z,76.41
2017-04-17T10:48:01.323Z,76.32
2017-04-17T10:49:02.377Z,76.29
2017-04-17T10:50:03.584Z,76.22
2017-04-17T10:51:04.886Z,75.86
2017-04-17T10:52:06.061Z,76.17
2017-04-17T10:53:07.148Z,75.97
2017-04-17T10:54:08.389Z,75.78
2017-04-17T10:55:09.632Z,76.11
2017-04-17T10:56:10.720Z,76.03
2017-04-17T10:57:12.082Z,76.30
2017-04-17T10:58:13.231Z,76.63
2017-04-17T10:59:14.368Z,76.25
2017-04-17T11:00:15.561Z,76.30
2017-04-17T11:01:16.910Z,76.68
2017-04-17T11:02:18.620Z,76.29
2017-04-17T11:03:19.806Z,76.41
2017-04-17T11:04:21.039Z,76.75
2017-04-17T11:05:22.349Z,77.64
2017-04-17T11:06:23.644Z,77.63
2017-04-17T11:07:24.764Z,77.76
2017-04-17T11:08:25.973Z,77.79
2017-04-17T11:09:27.132Z,77.39
2017-04-17T11:10:28.448Z,77.26
2017-04-17T11:11:30.351Z,76.41
2017-04-17T11:12:31.342Z,76.14
2017-04-17T11:13:32.572Z,75.72
2017-04-17T11:14:33.892Z,75.76
2017-04-17T11:15:35.085Z,76.00
2017-04-17T11:16:36.379Z,76.67
2017-04-17T11:17:37.796Z,75.18
2017-04-17T11:18:38.894Z,75.51
2017-04-17T11:19:40.129Z,75.87
2017-04-17T11:20:41.671Z,76.07
2017-04-17T11:21:43.121Z,76.08
2017-04-17T11:22:44.384Z,75.92
2017-04-17T11:23:45.569Z,75.17
2017-04-17T11:24:46.515Z,75.51
2017-04-17T11:25:48.177Z,75.79
2017-04-17T11:26:49.712Z,75.14
2017-04-17T11:27:51.167Z,74.34
2017-04-17T11:28:52.769Z,73.61
2017-04-17T11:29:53.903Z,73.10
2017-04-17T11:30:55.015Z,73.25
2017-04-17T11:31:56.289Z,71.75
2017-04-17T11:32:57.626Z,69.66
2017-04-17T11:33:59.373Z,71.21
2017-04-17T11:35:00.793Z,71.81
2017-04-17T11:36:02.322Z,72.33
2017-04-17T11:37:03.487Z,71.64
2017-04-17T11:38:04.415Z,71.76
2017-04-17T11:39:05.963Z,72.34
2017-04-17T11:40:07.179Z,72.72
2017-04-17T11:41:08.465Z,72.82
2017-04-17T11:42:09.944Z,73.88
2017-04-17T11:43:11.033Z,73.22
2017-04-17T11:44:12.237Z,72.50
2017-04-17T11:45:13.242Z,72.47
2017-04-17T11:46:14.465Z,72.32
2017-04-17T11:47:15.598Z,72.29
2017-04-17T11:48:16.908Z,71.56
2017-04-17T11:49:18.109Z,72.00
2017-04-17T11:50:19.115Z,72.00
2017-04-17T11:51:20.343Z,72.32
2017-04-17T11:52:21.479Z,72.64
2017-04-17T11:53:22.590Z,72.85
2017-04-17T11:54:23.816Z,72.76
2017-04-17T11:55:24.983Z,73.69
2017-04-17T11:56:26.113Z,73.36
2017-04-17T11:57:27.428Z,72.74
2017-04-17T11:58:28.588Z,71.53
2017-04-17T11:59:29.797Z,71.10
2017-04-17T12:00:31.032Z,71.48
2017-04-17T12:01:31.986Z,70.60
2017-04-17T12:02:33.599Z,71.21
2017-04-17T12:03:34.685Z,72.57
2017-04-17T12:04:36.184Z,72.32
2017-04-17T12:05:37.575Z,72.19
2017-04-17T12:06:38.832Z,68.70
2017-04-17T12:07:40.085Z,68.29
2017-04-17T12:08:41.809Z,70.56
2017-04-17T12:09:43.052Z,71.33
2017-04-17T12:10:44.218Z,71.76
2017-04-17T12:11:45.287Z,71.83
2017-04-17T12:12:46.365Z,71.83
2017-04-17T12:13:47.566Z,72.07
2017-04-17T12:14:48.789Z,72.18
2017-04-17T12:15:50.096Z,71.47
2017-04-17T12:16:51.348Z,70.71
2017-04-17T12:17:52.483Z,70.65
2017-04-17T12:18:53.488Z,70.47
2017-04-17T12:19:54.617Z,71.32
2017-04-17T12:20:55.567Z,71.01
2017-04-17T12:21:56.752Z,70.66
2017-04-17T12:22:58.059Z,70.57
2017-04-17T12:23:59.422Z,70.92
2017-04-17T12:25:00.681Z,69.45
2017-04-17T12:26:02.145Z,70.18
2017-04-17T12:27:03.424Z,69.81
2017-04-17T12:28:04.623Z,68.88
2017-04-17T12:29:05.851Z,67.10
2017-04-17T12:30:07.359Z,66.55
2017-04-17T12:31:08.706Z,67.89
2017-04-17T12:32:10.766Z,67.88
2017-04-17T12:33:11.991Z,68.56
2017-04-17T12:34:13.160Z,68.98
2017-04-17T12:35:14.352Z,69.06
2017-04-17T12:36:15.326Z,67.67
2017-04-17T12:37:16.433Z,67.67
2017-04-17T12:38:17.754Z,68.93
2017-04-17T12:39:19.073Z,67.99
2017-04-17T12:40:20.328Z,68.19
2017-04-17T12:41:21.590Z,68.04
2017-04-17T12:42:23.097Z,68.15
2017-04-17T12:43:24.087Z,68.83
2017-04-17T12:44:25.201Z,68.33
2017-04-17T12:45:26.349Z,66.84
2017-04-17T12:46:27.527Z,66.43
2017-04-17T12:47:28.899Z,65.72
2017-04-17T12:48:30.359Z,65.69
2017-04-17T12:49:31.508Z,64.92
2017-04-17T12:50:32.807Z,64.60
2017-04-17T12:51:33.954Z,62.71
2017-04-17T12:52:35.938Z,64.56
2017-04-17T12:53:37.416Z,67.97
2017-04-17T12:54:38.667Z,69.46
2017-04-17T12:55:40.149Z,70.76
2017-04-17T12:56:41.867Z,71.34
2017-04-17T12:57:43.253Z,71.46
2017-04-17T12:58:44.618Z,72.42
2017-04-17T12:59:45.964Z,73.32
2017-04-17T13:00:47.498Z,71.01
2017-04-17T13:01:48.823Z,70.45
2017-04-17T13:02:50.238Z,70.19
2017-04-17T13:03:51.687Z,70.72
2017-04-17T13:04:53.088Z,71.90
2017-04-17T13:05:54.232Z,72.49
2017-04-17T13:06:55.326Z,71.74
2017-04-17T13:07:56.653Z,70.57
2017-04-17T13:08:58.157Z,69.53
2017-04-17T13:09:59.298Z,68.72